createdAt,value
2019-05-01T00:00:26.905Z,0.00
2019-05-01T00:01:26.863Z,0.00
2019-05-01T00:02:26.838Z,0.00
2019-05-01T00:03:26.814Z,0.00
2019-05-01T00:04:26.779Z,0.00
2019-05-01T00:05:26.826Z,0.00
2019-05-01T00:06:26.728Z,0.00
2019-05-01T00:07:26.685Z,0.00
2019-05-01T00:08:26.667Z,0.00
2019-05-01T00:09:26.730Z,0.00
2019-05-01T00:10:26.610Z,0.00
2019-05-01T00:11:26.590Z,0.00
2019-05-01T00:12:26.556Z,0.00
2019-05-01T00:13:26.528Z,0.00
2019-05-01T00:14:26.498Z,0.00
2019-05-01T00:15:26.472Z,0.00
2019-05-01T00:16:26.493Z,0.00
2019-05-01T00:17:27.820Z,0.00
2019-05-01T00:18:26.429Z,0.00
2019-05-01T00:19:26.364Z,0.00
2019-05-01T00:20:26.422Z,0.00
2019-05-01T00:21:26.301Z,0.00
2019-05-01T00:22:26.270Z,0.00
2019-05-01T00:23:26.250Z,0.00
2019-05-01T00:24:26.246Z,0.00
2019-05-01T00:25:26.185Z,0.00
2019-05-01T00:26:26.163Z,0.00
2019-05-01T00:27:34.736Z,0.00
2019-05-01T00:28:26.098Z,0.00
2019-05-01T00:29:32.693Z,0.00
2019-05-01T00:30:29.969Z,0.00
2019-05-01T00:31:28.110Z,0.00
2019-05-01T00:32:25.988Z,0.00
2019-05-01T00:33:26.067Z,0.00
2019-05-01T00:34:25.929Z,0.00
2019-05-01T00:35:28.019Z,0.00
2019-05-01T00:36:25.882Z,0.00
2019-05-01T00:38:25.843Z,0.00
2019-05-01T00:39:32.764Z,0.00
2019-05-01T00:40:25.760Z,0.00
2019-05-01T00:41:25.748Z,0.00
2019-05-01T00:42:26.745Z,0.00
2019-05-01T00:43:25.680Z,0.00
2019-05-01T00:44:27.679Z,0.00
2019-05-01T00:45:25.626Z,0.00
2019-05-01T00:46:26.671Z,0.00
2019-05-01T00:47:25.563Z,0.00
2019-05-01T00:48:46.651Z,0.00
2019-05-01T00:49:25.594Z,0.00
2019-05-01T00:50:40.210Z,0.00
2019-05-01T00:51:25.453Z,0.00
2019-05-01T00:52:25.483Z,0.00
2019-05-01T00:53:25.403Z,0.00
2019-05-01T00:54:27.439Z,0.00
2019-05-01T00:55:25.336Z,0.00
2019-05-01T00:56:25.407Z,0.00
2019-05-01T00:57:25.277Z,0.00
2019-05-01T00:58:25.314Z,0.00
2019-05-01T00:59:25.227Z,0.00
2019-05-01T01:00:26.334Z,0.00
2019-05-01T01:01:25.167Z,0.00
2019-05-01T01:02:25.251Z,0.00
2019-05-01T01:03:25.112Z,0.00
2019-05-01T01:04:25.171Z,0.00
2019-05-01T01:05:25.126Z,0.00
2019-05-01T01:06:27.110Z,0.00
2019-05-01T01:07:25.007Z,0.00
2019-05-01T01:08:25.078Z,0.00
2019-05-01T01:09:24.940Z,0.00
2019-05-01T01:10:26.937Z,0.00
2019-05-01T01:11:24.886Z,0.00
2019-05-01T01:12:24.847Z,0.00
2019-05-01T01:13:24.914Z,0.00
2019-05-01T01:14:24.798Z,0.00
2019-05-01T01:15:24.820Z,0.00
2019-05-01T01:16:24.740Z,0.00
2019-05-01T01:17:31.692Z,0.00
2019-05-01T01:18:24.677Z,0.00
2019-05-01T01:19:25.767Z,0.00
2019-05-01T01:20:24.623Z,0.00
2019-05-01T01:21:26.703Z,0.00
2019-05-01T01:22:24.595Z,0.00
2019-05-01T01:23:24.596Z,0.00
2019-05-01T01:24:24.529Z,0.00
2019-05-01T01:25:39.233Z,0.00
2019-05-01T01:26:24.457Z,0.00
2019-05-01T01:27:31.258Z,0.00
2019-05-01T01:28:24.394Z,0.00
2019-05-01T01:29:26.430Z,0.00
2019-05-01T01:30:24.363Z,0.00
2019-05-01T01:31:25.423Z,0.00
2019-05-01T01:32:24.285Z,0.00
2019-05-01T01:33:24.308Z,0.00
2019-05-01T01:34:24.228Z,0.00
2019-05-01T01:35:24.220Z,0.00
2019-05-01T01:36:24.159Z,0.00
2019-05-01T01:37:26.169Z,0.00
2019-05-01T01:38:24.116Z,0.00
2019-05-01T01:39:25.206Z,0.00
2019-05-01T01:40:24.055Z,0.00
2019-05-01T01:41:24.046Z,0.00
2019-05-01T01:42:24.111Z,0.00
2019-05-01T01:43:26.027Z,0.00
2019-05-01T01:44:23.933Z,0.00
2019-05-01T01:46:23.885Z,0.00
2019-05-01T01:47:24.915Z,0.00
2019-05-01T01:48:23.821Z,0.00
2019-05-01T01:49:24.862Z,0.00
2019-05-01T01:50:23.766Z,0.00
2019-05-01T01:51:30.727Z,0.00
2019-05-01T01:52:23.715Z,0.00
2019-05-01T01:53:30.213Z,0.00
2019-05-01T01:54:23.656Z,0.00
2019-05-01T01:55:24.699Z,0.00
2019-05-01T01:56:23.587Z,0.00
2019-05-01T01:57:30.243Z,0.00
2019-05-01T01:58:23.540Z,0.00
2019-05-01T01:59:23.505Z,0.00
2019-05-01T02:00:23.476Z,0.00
2019-05-01T02:01:23.520Z,0.00
2019-05-01T02:02:23.417Z,0.00
2019-05-01T02:03:23.500Z,0.00
2019-05-01T02:04:23.372Z,0.00
2019-05-01T02:05:23.412Z,0.00
2019-05-01T02:06:23.335Z,0.00
2019-05-01T02:07:23.301Z,0.00
2019-05-01T02:08:23.244Z,0.00
2019-05-01T02:09:25.258Z,0.00
2019-05-01T02:10:23.280Z,0.00
2019-05-01T02:11:23.227Z,0.00
2019-05-01T02:12:23.129Z,0.00
2019-05-01T02:13:24.160Z,0.00
2019-05-01T02:14:23.079Z,0.00
2019-05-01T02:15:23.162Z,0.00
2019-05-01T02:16:23.042Z,0.00
2019-05-01T02:17:29.718Z,0.00
2019-05-01T02:18:22.962Z,0.00
2019-05-01T02:19:25.049Z,0.00
2019-05-01T02:20:22.897Z,0.00
2019-05-01T02:22:22.844Z,0.00
2019-05-01T02:23:22.897Z,0.00
2019-05-01T02:24:22.782Z,0.00
2019-05-01T02:25:38.786Z,0.00
2019-05-01T02:26:22.731Z,0.00
2019-05-01T02:27:29.779Z,0.00
2019-05-01T02:28:22.666Z,0.00
2019-05-01T02:29:29.334Z,0.00
2019-05-01T02:30:22.622Z,0.00
2019-05-01T02:31:29.298Z,0.00
2019-05-01T02:33:22.531Z,0.00
2019-05-01T02:34:22.568Z,0.00
2019-05-01T02:35:22.473Z,0.00
2019-05-01T02:37:22.453Z,0.00
2019-05-01T02:38:22.385Z,0.00
2019-05-01T02:39:22.440Z,0.00
2019-05-01T02:40:22.433Z,0.00
2019-05-01T02:41:46.197Z,0.00
2019-05-01T02:42:22.260Z,0.00
2019-05-01T02:44:22.217Z,0.00
2019-05-01T02:45:38.746Z,0.00
2019-05-01T02:46:22.151Z,0.00
2019-05-01T02:47:24.242Z,0.00
2019-05-01T02:48:22.093Z,0.00
2019-05-01T02:49:36.806Z,0.00
2019-05-01T02:50:22.036Z,0.00
2019-05-01T02:51:36.720Z,0.00
2019-05-01T02:52:21.995Z,0.00
2019-05-01T02:53:30.786Z,0.00
2019-05-01T02:54:21.926Z,0.00
2019-05-01T02:55:23.948Z,0.00
2019-05-01T02:56:21.872Z,0.00
2019-05-01T02:57:22.930Z,0.00
2019-05-01T02:58:21.808Z,0.00
2019-05-01T03:06:42.518Z,0.00
2019-05-01T03:07:54.344Z,0.00
2019-05-01T03:08:53.523Z,0.00
2019-05-01T03:09:42.379Z,0.00
2019-05-01T03:10:53.633Z,0.00
2019-05-01T03:11:53.543Z,0.00
2019-05-01T03:12:42.296Z,0.00
2019-05-01T03:13:53.052Z,0.00
2019-05-01T03:14:52.942Z,0.00
2019-05-01T03:15:42.298Z,0.00
2019-05-01T03:16:42.190Z,0.00
2019-05-01T03:17:52.962Z,0.00
2019-05-01T03:18:42.132Z,0.00
2019-05-01T03:19:52.973Z,0.00
2019-05-01T03:20:52.879Z,0.00
2019-05-01T03:21:42.030Z,0.00
2019-05-01T03:22:53.918Z,0.00
2019-05-01T03:23:52.914Z,0.00
2019-05-01T03:24:41.966Z,0.00
2019-05-01T03:25:52.928Z,0.00
2019-05-01T03:26:53.131Z,0.00
2019-05-01T03:27:41.882Z,0.00
2019-05-01T03:28:53.114Z,0.00
2019-05-01T03:29:53.060Z,0.00
2019-05-01T03:30:41.800Z,0.00
2019-05-01T03:32:14.189Z,0.00
2019-05-01T03:32:52.554Z,0.00
2019-05-01T03:33:41.702Z,0.00
2019-05-01T03:34:53.278Z,0.00
2019-05-01T03:35:52.441Z,0.00
2019-05-01T03:36:41.614Z,0.00
2019-05-01T03:37:52.544Z,0.00
2019-05-01T03:38:52.453Z,0.00
2019-05-01T03:39:41.532Z,0.00
2019-05-01T03:40:52.473Z,0.00
2019-05-01T03:41:52.371Z,0.00
2019-05-01T03:42:41.439Z,4.00
2019-05-01T03:43:52.486Z,4.00
2019-05-01T03:44:52.394Z,0.00
2019-05-01T03:45:41.357Z,4.00
2019-05-01T03:46:52.398Z,4.00
2019-05-01T03:47:52.112Z,4.00
2019-05-01T03:48:41.284Z,4.00
2019-05-01T03:51:13.686Z,4.00
2019-05-01T03:52:13.659Z,8.00
2019-05-01T03:54:07.460Z,8.00
2019-05-01T03:55:07.433Z,8.00
2019-05-01T03:56:07.401Z,8.00
2019-05-01T03:57:07.375Z,12.00
2019-05-01T03:58:07.349Z,12.00
2019-05-01T03:59:07.305Z,12.00
2019-05-01T04:00:07.285Z,16.00
2019-05-01T04:01:07.250Z,16.00
2019-05-01T04:02:07.214Z,16.00
2019-05-01T04:03:07.192Z,20.00
2019-05-01T04:04:07.174Z,24.00
2019-05-01T04:05:07.131Z,24.00
2019-05-01T04:06:07.178Z,28.00
2019-05-01T04:07:07.093Z,28.00
2019-05-01T04:08:07.041Z,32.00
2019-05-01T04:09:07.040Z,32.00
2019-05-01T04:10:07.020Z,32.00
2019-05-01T04:11:06.963Z,36.00
2019-05-01T04:12:07.024Z,40.00
2019-05-01T04:13:06.907Z,40.00
2019-05-01T04:14:06.871Z,44.00
2019-05-01T04:15:06.851Z,48.00
2019-05-01T04:16:06.827Z,52.00
2019-05-01T04:17:06.782Z,52.00
2019-05-01T04:18:06.769Z,56.00
2019-05-01T04:19:06.734Z,60.00
2019-05-01T04:20:06.726Z,64.00
2019-05-01T04:21:06.679Z,64.00
2019-05-01T04:22:06.677Z,68.00
2019-05-01T04:23:06.612Z,76.00
2019-05-01T04:24:06.590Z,88.00
2019-05-01T04:25:06.601Z,92.00
2019-05-01T04:26:06.536Z,104.00
2019-05-01T04:27:06.507Z,104.00
2019-05-01T04:28:06.462Z,104.00
2019-05-01T04:29:06.437Z,112.00
2019-05-01T04:30:06.431Z,108.00
2019-05-01T04:31:06.376Z,112.00
2019-05-01T04:32:06.351Z,120.00
2019-05-01T04:33:06.322Z,128.00
2019-05-01T04:34:06.297Z,132.00
2019-05-01T04:35:06.273Z,132.00
2019-05-01T04:36:13.067Z,132.00
2019-05-01T04:37:08.096Z,132.00
2019-05-01T04:38:08.314Z,132.00
2019-05-01T04:39:06.148Z,140.00
2019-05-01T04:40:06.119Z,148.00
2019-05-01T04:41:06.105Z,164.00
2019-05-01T04:42:06.066Z,176.00
2019-05-01T04:43:06.066Z,184.00
2019-05-01T04:44:06.008Z,192.00
2019-05-01T04:45:06.075Z,188.00
2019-05-01T04:46:05.938Z,200.00
2019-05-01T04:47:05.988Z,204.00
2019-05-01T04:48:05.892Z,212.00
2019-05-01T04:49:05.893Z,224.00
2019-05-01T04:50:05.826Z,228.00
2019-05-01T04:51:05.903Z,232.00
2019-05-01T04:52:05.777Z,232.00
2019-05-01T04:53:05.746Z,228.00
2019-05-01T04:54:05.706Z,236.00
2019-05-01T04:55:05.686Z,244.00
2019-05-01T04:56:05.652Z,248.00
2019-05-01T04:57:05.636Z,264.00
2019-05-01T04:58:05.598Z,264.00
2019-05-01T04:59:14.343Z,272.00
2019-05-01T05:00:05.531Z,276.00
2019-05-01T05:01:06.587Z,280.00
2019-05-01T05:02:05.506Z,292.00
2019-05-01T05:03:05.634Z,304.00
2019-05-01T05:04:05.423Z,304.00
2019-05-01T05:06:05.358Z,316.00
2019-05-01T05:07:05.344Z,328.00
2019-05-01T05:08:12.249Z,336.00
2019-05-01T05:09:05.277Z,352.00
2019-05-01T05:10:05.320Z,356.00
2019-05-01T05:11:05.217Z,348.00
2019-05-01T05:12:05.228Z,344.00
2019-05-01T05:13:05.184Z,336.00
2019-05-01T05:22:02.402Z,400.00
2019-05-01T05:23:02.427Z,392.00
2019-05-01T05:24:02.326Z,384.00
2019-05-01T05:25:02.328Z,404.00
2019-05-01T05:26:02.283Z,416.00
2019-05-01T05:27:02.343Z,404.00
2019-05-01T05:28:02.230Z,412.00
2019-05-01T05:29:02.260Z,436.00
2019-05-01T05:30:02.155Z,452.00
2019-05-01T05:31:02.173Z,464.00
2019-05-01T05:32:02.098Z,456.00
2019-05-01T05:33:02.089Z,448.00
2019-05-01T05:34:02.040Z,452.00
2019-05-01T05:36:01.976Z,484.00
2019-05-01T05:37:11.014Z,520.00
2019-05-01T05:38:01.917Z,544.00
2019-05-01T05:39:10.533Z,560.00
2019-05-01T05:40:01.866Z,572.00
2019-05-01T05:41:03.879Z,568.00
2019-05-01T05:42:01.805Z,560.00
2019-05-01T05:43:09.518Z,544.00
2019-05-01T05:44:01.754Z,532.00
2019-05-01T05:45:10.448Z,528.00
2019-05-01T05:46:01.689Z,564.00
2019-05-01T05:47:17.453Z,588.00
2019-05-01T05:48:01.624Z,592.00
2019-05-01T05:49:25.450Z,584.00
2019-05-01T05:50:01.582Z,580.00
2019-05-01T05:51:01.609Z,604.00
2019-05-01T05:52:01.510Z,632.00
2019-05-01T05:53:26.503Z,648.00
2019-05-01T05:54:01.455Z,692.00
2019-05-01T05:55:01.427Z,732.00
2019-05-01T05:56:02.456Z,792.00
2019-05-01T05:57:01.381Z,852.00
2019-05-01T05:59:01.317Z,892.00
2019-05-01T06:01:01.245Z,1056.00
2019-05-01T06:02:01.213Z,1072.00
2019-05-01T06:04:01.161Z,1008.00
2019-05-01T06:05:01.234Z,924.00
2019-05-01T06:06:01.123Z,924.00
2019-05-01T06:07:01.077Z,972.00
2019-05-01T06:08:01.049Z,984.00
2019-05-01T06:09:01.019Z,976.00
2019-05-01T06:10:00.983Z,956.00
2019-05-01T06:11:01.072Z,892.00
2019-05-01T06:12:05.023Z,848.00
2019-05-01T06:13:01.027Z,816.00
2019-05-01T06:14:00.869Z,816.00
2019-05-01T06:15:02.446Z,828.00
2019-05-01T06:16:00.810Z,856.00
2019-05-01T06:17:00.840Z,852.00
2019-05-01T06:18:04.161Z,856.00
2019-05-01T06:19:00.736Z,864.00
2019-05-01T06:20:00.694Z,860.00
2019-05-01T06:21:02.153Z,844.00
2019-05-01T06:22:04.930Z,844.00
2019-05-01T06:23:00.617Z,848.00
2019-05-01T06:24:06.302Z,856.00
2019-05-01T06:25:00.551Z,856.00
2019-05-01T06:26:02.483Z,868.00
2019-05-01T06:27:00.504Z,924.00
2019-05-01T06:28:00.524Z,960.00
2019-05-01T06:29:01.971Z,960.00
2019-05-01T06:30:00.515Z,932.00
2019-05-01T06:31:00.368Z,928.00
2019-05-01T06:32:00.431Z,936.00
2019-05-01T06:33:04.197Z,980.00
2019-05-01T06:34:00.281Z,1004.00
2019-05-01T06:35:03.091Z,1012.00
2019-05-01T06:36:00.234Z,1028.00
2019-05-01T06:37:00.243Z,1072.00
2019-05-01T06:38:00.731Z,1120.00
2019-05-01T06:39:02.254Z,1096.00
2019-05-01T06:40:00.121Z,1072.00
2019-05-01T06:41:00.181Z,1072.00
2019-05-01T06:42:00.076Z,1104.00
2019-05-01T06:43:01.106Z,1152.00
2019-05-01T06:44:02.209Z,1200.00
2019-05-01T06:45:16.777Z,1192.00
2019-05-01T06:46:00.043Z,1288.00
2019-05-01T06:47:03.261Z,1300.00
2019-05-01T06:47:59.877Z,1256.00
2019-05-01T06:48:59.911Z,1176.00
2019-05-01T06:50:01.226Z,1192.00
2019-05-01T06:51:07.508Z,1264.00
2019-05-01T06:51:59.803Z,1284.00
2019-05-01T06:53:06.729Z,1272.00
2019-05-01T06:53:59.702Z,1268.00
2019-05-01T06:54:59.739Z,1212.00
2019-05-01T06:55:59.645Z,1200.00
2019-05-01T06:57:07.539Z,1204.00
2019-05-01T06:57:59.592Z,1220.00
2019-05-01T06:59:14.535Z,1236.00
2019-05-01T07:00:03.121Z,1204.00
2019-05-01T07:00:59.498Z,1172.00
2019-05-01T07:02:00.251Z,1156.00
2019-05-01T07:02:59.444Z,1196.00
2019-05-01T07:04:03.862Z,1268.00
2019-05-01T07:04:59.393Z,1284.00
2019-05-01T07:06:13.361Z,1316.00
2019-05-01T07:07:01.894Z,1312.00
2019-05-01T07:07:59.336Z,1296.00
2019-05-01T07:08:59.288Z,1276.00
2019-05-01T07:10:08.060Z,1288.00
2019-05-01T07:10:59.212Z,1280.00
2019-05-01T07:11:59.267Z,1252.00
2019-05-01T07:12:59.911Z,1236.00
2019-05-01T07:14:11.220Z,1240.00
2019-05-01T07:14:59.145Z,1300.00
2019-05-01T07:16:03.067Z,1344.00
2019-05-01T07:16:59.071Z,1340.00
2019-05-01T07:18:00.144Z,1332.00
2019-05-01T07:19:05.735Z,1344.00
2019-05-01T07:20:01.091Z,1404.00
2019-05-01T07:20:58.945Z,1452.00
2019-05-01T07:22:01.819Z,1456.00
2019-05-01T07:22:58.907Z,1456.00
2019-05-01T07:24:07.559Z,1444.00
2019-05-01T07:25:03.383Z,1484.00
2019-05-01T07:25:58.870Z,1496.00
2019-05-01T07:26:59.855Z,1460.00
2019-05-01T07:27:59.755Z,1460.00
2019-05-01T07:28:58.707Z,1460.00
2019-05-01T07:29:58.777Z,1476.00
2019-05-01T07:30:58.678Z,1504.00
2019-05-01T07:32:01.642Z,1604.00
2019-05-01T07:32:58.600Z,1640.00
2019-05-01T07:33:58.594Z,1612.00
2019-05-01T07:35:02.082Z,1544.00
2019-05-01T07:35:58.608Z,1520.00
2019-05-01T07:36:58.498Z,1576.00
2019-05-01T07:38:02.260Z,1592.00
2019-05-01T07:38:58.415Z,1668.00
2019-05-01T07:39:58.421Z,1844.00
2019-05-01T07:40:58.899Z,1924.00
2019-05-01T07:41:58.436Z,2112.00
2019-05-01T07:42:58.337Z,2384.00
2019-05-01T07:43:59.720Z,2680.00
2019-05-01T07:44:58.224Z,2852.00
2019-05-01T07:46:07.089Z,2780.00
2019-05-01T07:46:58.209Z,2728.00
2019-05-01T07:48:01.087Z,2612.00
2019-05-01T07:48:58.154Z,2504.00
2019-05-01T07:50:00.170Z,2464.00
2019-05-01T07:51:01.843Z,2344.00
2019-05-01T07:52:01.708Z,2280.00
2019-05-01T07:52:58.018Z,2340.00
2019-05-01T07:54:08.737Z,2528.00
2019-05-01T07:54:57.939Z,2828.00
2019-05-01T07:55:57.957Z,2940.00
2019-05-01T07:56:58.653Z,2828.00
2019-05-01T07:57:57.864Z,2760.00
2019-05-01T07:58:58.982Z,2676.00
2019-05-01T07:59:58.332Z,2756.00
2019-05-01T08:00:58.880Z,2988.00
2019-05-01T08:01:57.733Z,3188.00
2019-05-01T08:02:57.758Z,3240.00
2019-05-01T08:03:57.686Z,3336.00
2019-05-01T08:04:59.739Z,3244.00
2019-05-01T08:05:57.642Z,3048.00
2019-05-01T08:06:58.690Z,2936.00
2019-05-01T08:07:57.578Z,2952.00
2019-05-01T08:08:57.551Z,3024.00
2019-05-01T08:09:57.513Z,2956.00
2019-05-01T08:10:59.821Z,2848.00
2019-05-01T08:11:57.483Z,2760.00
2019-05-01T08:13:00.340Z,2704.00
2019-05-01T08:14:07.109Z,2744.00
2019-05-01T08:14:57.370Z,2808.00
2019-05-01T08:15:57.450Z,2964.00
2019-05-01T08:16:57.381Z,3292.00
2019-05-01T08:17:57.287Z,3492.00
2019-05-01T08:18:59.003Z,3612.00
2019-05-01T08:19:57.255Z,3548.00
2019-05-01T08:20:57.219Z,3388.00
2019-05-01T08:22:01.698Z,3308.00
2019-05-01T08:22:57.159Z,3328.00
2019-05-01T08:23:57.121Z,3428.00
2019-05-01T08:24:58.763Z,3456.00
2019-05-01T08:25:57.063Z,3588.00
2019-05-01T08:26:57.179Z,3564.00
2019-05-01T08:27:58.109Z,3364.00
2019-05-01T08:28:57.140Z,3244.00
2019-05-01T08:29:56.942Z,3224.00
2019-05-01T08:30:57.095Z,3364.00
2019-05-01T08:31:58.749Z,3760.00
2019-05-01T08:32:56.906Z,3600.00
2019-05-01T08:33:56.870Z,3672.00
2019-05-01T08:35:00.381Z,3724.00
2019-05-01T08:35:56.787Z,3924.00
2019-05-01T08:36:56.959Z,3748.00
2019-05-01T08:37:58.496Z,3688.00
2019-05-01T08:38:56.885Z,3792.00
2019-05-01T08:39:56.691Z,4012.00
2019-05-01T08:40:56.858Z,3652.00
2019-05-01T08:41:56.592Z,3512.00
2019-05-01T08:42:56.774Z,3456.00
2019-05-01T08:43:56.525Z,3428.00
2019-05-01T08:44:59.858Z,3360.00
2019-05-01T08:45:56.520Z,3268.00
2019-05-01T08:46:56.607Z,3256.00
2019-05-01T08:47:56.758Z,3240.00
2019-05-01T08:48:56.438Z,3332.00
2019-05-01T08:49:56.357Z,3432.00
2019-05-01T08:51:11.060Z,3584.00
2019-05-01T08:51:56.305Z,3720.00
2019-05-01T08:53:34.078Z,3600.00
2019-05-01T08:53:57.957Z,3452.00
2019-05-01T08:54:56.269Z,3292.00
2019-05-01T08:55:56.276Z,3176.00
2019-05-01T08:56:57.976Z,3080.00
2019-05-01T08:57:56.108Z,3092.00
2019-05-01T08:58:56.192Z,3172.00
2019-05-01T09:00:00.397Z,3168.00
2019-05-01T09:00:56.097Z,3104.00
2019-05-01T09:02:09.026Z,3048.00
2019-05-01T09:03:07.902Z,3084.00
2019-05-01T09:03:56.072Z,3092.00
2019-05-01T09:05:02.529Z,3164.00
2019-05-01T09:05:57.298Z,3256.00
2019-05-01T09:06:55.894Z,3224.00
2019-05-01T09:07:57.656Z,3076.00
2019-05-01T09:08:55.805Z,2988.00
2019-05-01T09:09:55.896Z,3064.00
2019-05-01T09:11:00.280Z,3088.00
2019-05-01T09:11:55.785Z,3100.00
2019-05-01T09:12:55.700Z,3332.00
2019-05-01T09:13:58.925Z,3540.00
2019-05-01T09:14:55.632Z,3560.00
2019-05-01T09:15:55.658Z,3940.00
2019-05-01T09:16:55.592Z,4304.00
2019-05-01T09:17:55.544Z,4272.00
2019-05-01T09:18:55.630Z,4292.00
2019-05-01T09:19:55.479Z,4188.00
2019-05-01T09:20:55.482Z,3988.00
2019-05-01T09:21:55.549Z,3912.00
2019-05-01T09:22:55.427Z,3908.00
2019-05-01T09:23:55.465Z,4008.00
2019-05-01T09:24:59.895Z,4096.00
2019-05-01T09:25:56.408Z,4100.00
2019-05-01T09:26:55.289Z,4036.00
2019-05-01T09:27:55.452Z,3956.00
2019-05-01T09:28:55.254Z,3924.00
2019-05-01T09:29:55.268Z,3932.00
2019-05-01T09:31:01.372Z,4040.00
2019-05-01T09:31:55.171Z,4096.00
2019-05-01T09:32:55.576Z,4088.00
2019-05-01T09:33:55.103Z,4060.00
2019-05-01T09:34:58.035Z,4272.00
2019-05-01T09:35:56.139Z,4504.00
2019-05-01T09:36:55.971Z,4492.00
2019-05-01T09:37:57.739Z,4516.00
2019-05-01T09:38:54.952Z,4600.00
2019-05-01T09:39:54.978Z,4540.00
2019-05-01T09:40:54.917Z,4560.00
2019-05-01T09:41:54.985Z,4600.00
2019-05-01T09:42:58.968Z,4452.00
2019-05-01T09:43:54.893Z,4404.00
2019-05-01T09:44:54.772Z,4392.00
2019-05-01T09:45:54.779Z,4308.00
2019-05-01T09:46:54.723Z,4184.00
2019-05-01T09:47:54.718Z,4064.00
2019-05-01T09:48:54.653Z,3948.00
2019-05-01T09:49:55.975Z,3992.00
2019-05-01T09:50:54.598Z,4128.00
2019-05-01T09:51:54.566Z,4268.00
2019-05-01T09:52:55.164Z,4396.00
2019-05-01T09:53:54.622Z,4512.00
2019-05-01T09:54:54.520Z,4600.00
2019-05-01T09:55:54.436Z,4672.00
2019-05-01T09:56:54.439Z,4608.00
2019-05-01T09:57:55.431Z,4632.00
2019-05-01T09:58:54.375Z,4728.00
2019-05-01T09:59:54.362Z,4856.00
2019-05-01T10:00:54.346Z,4856.00
2019-05-01T10:01:54.318Z,4940.00
2019-05-01T10:02:54.737Z,5032.00
2019-05-01T10:03:54.823Z,5260.00
2019-05-01T10:04:54.178Z,5280.00
2019-05-01T10:05:54.269Z,5036.00
2019-05-01T10:06:54.224Z,4840.00
2019-05-01T10:07:54.188Z,4712.00
2019-05-01T10:08:54.081Z,4636.00
2019-05-01T10:09:55.163Z,4612.00
2019-05-01T10:10:54.021Z,4568.00
2019-05-01T10:11:56.175Z,4556.00
2019-05-01T10:12:54.011Z,4564.00
2019-05-01T10:13:58.545Z,4432.00
2019-05-01T10:14:53.907Z,4416.00
2019-05-01T10:15:53.895Z,4472.00
2019-05-01T10:16:53.856Z,4648.00
2019-05-01T10:17:53.851Z,4856.00
2019-05-01T10:18:53.948Z,4956.00
2019-05-01T10:19:53.845Z,5208.00
2019-05-01T10:20:53.735Z,5852.00
2019-05-01T10:21:53.720Z,6056.00
2019-05-01T10:22:53.728Z,5772.00
2019-05-01T10:23:53.861Z,5680.00
2019-05-01T10:24:53.702Z,5808.00
2019-05-01T10:25:53.617Z,5768.00
2019-05-01T10:26:55.237Z,5652.00
2019-05-01T10:27:53.585Z,5412.00
2019-05-01T10:28:53.519Z,5272.00
2019-05-01T10:29:56.918Z,5436.00
2019-05-01T10:30:53.519Z,5812.00
2019-05-01T10:31:53.487Z,5944.00
2019-05-01T10:32:58.010Z,5920.00
2019-05-01T10:33:54.361Z,6028.00
2019-05-01T10:34:53.353Z,6084.00
2019-05-01T10:35:53.334Z,5880.00
2019-05-01T10:36:54.596Z,5744.00
2019-05-01T10:37:53.294Z,5624.00
2019-05-01T10:38:53.223Z,5804.00
2019-05-01T10:39:54.127Z,5852.00
2019-05-01T10:40:53.188Z,6116.00
2019-05-01T10:41:53.225Z,6164.00
2019-05-01T10:42:53.096Z,6160.00
2019-05-01T10:43:53.081Z,5992.00
2019-05-01T10:44:53.062Z,5972.00
2019-05-01T10:45:53.008Z,6224.00
2019-05-01T10:46:52.990Z,6528.00
2019-05-01T10:47:52.977Z,6484.00
2019-05-01T10:48:52.924Z,6392.00
2019-05-01T10:50:07.533Z,6560.00
2019-05-01T10:50:52.887Z,6392.00
2019-05-01T10:53:25.091Z,6212.00
2019-05-01T12:05:36.703Z,2640.00
2019-05-01T12:06:33.796Z,2516.00
2019-05-01T12:07:33.894Z,2524.00
2019-05-01T12:08:33.729Z,2720.00
2019-05-01T12:09:33.704Z,2488.00
2019-05-01T12:10:33.676Z,2424.00
2019-05-01T12:11:34.651Z,2368.00
2019-05-01T12:12:33.613Z,2420.00
2019-05-01T12:18:16.893Z,2556.00
2019-05-01T12:19:14.219Z,2632.00
2019-05-01T12:20:14.169Z,2904.00
2019-05-01T12:21:14.149Z,3120.00
2019-05-01T12:22:14.095Z,3752.00
2019-05-01T12:23:14.088Z,4424.00
2019-05-01T12:24:14.052Z,5012.00
2019-05-01T12:25:14.027Z,4760.00
2019-05-01T12:26:13.993Z,4920.00
2019-05-01T12:27:13.967Z,4944.00
2019-05-01T12:28:13.932Z,4980.00
2019-05-01T12:29:13.926Z,4856.00
2019-05-01T12:30:13.878Z,5344.00
2019-05-01T12:31:13.847Z,5880.00
2019-05-01T12:32:13.827Z,5832.00
2019-05-01T12:33:13.802Z,5544.00
2019-05-01T12:34:13.772Z,5208.00
2019-05-01T12:35:13.744Z,5468.00
2019-05-01T12:36:13.708Z,5912.00
2019-05-01T12:37:13.706Z,5824.00
2019-05-01T12:38:13.651Z,5596.00
2019-05-01T12:39:13.633Z,5592.00
2019-05-01T12:40:13.593Z,5228.00
2019-05-01T12:41:13.570Z,4812.00
2019-05-01T12:42:13.536Z,4224.00
2019-05-01T12:43:13.515Z,3972.00
2019-05-01T12:44:13.479Z,3964.00
2019-05-01T12:45:13.457Z,4396.00
2019-05-01T12:46:13.437Z,4340.00
2019-05-01T12:47:13.402Z,4064.00
2019-05-01T12:48:13.466Z,4000.00
2019-05-01T12:49:15.766Z,4236.00
2019-05-01T12:50:13.328Z,4520.00
2019-05-01T12:51:14.289Z,4360.00
2019-05-01T12:52:13.255Z,4456.00
2019-05-01T12:53:13.238Z,4036.00
2019-05-01T12:54:13.203Z,3536.00
2019-05-01T12:55:13.196Z,3112.00
2019-05-01T12:56:13.155Z,2856.00
2019-05-01T12:57:13.124Z,2680.00
2019-05-01T12:58:13.098Z,2352.00
2019-05-01T12:59:13.072Z,2376.00
2019-05-01T13:00:13.052Z,2196.00
2019-05-01T13:01:13.033Z,2300.00
2019-05-01T13:02:12.988Z,2356.00
2019-05-01T13:03:12.950Z,2152.00
2019-05-01T13:04:12.931Z,2044.00
2019-05-01T13:05:12.894Z,2112.00
2019-05-01T13:06:14.407Z,2580.00
2019-05-01T13:07:12.957Z,3100.00
2019-05-01T13:08:12.808Z,3200.00
2019-05-01T13:09:12.829Z,2768.00
2019-05-01T13:10:12.759Z,2792.00
2019-05-01T13:11:12.760Z,3168.00
2019-05-01T13:12:12.688Z,2884.00
2019-05-01T13:13:12.669Z,2992.00
2019-05-01T13:14:12.654Z,2656.00
2019-05-01T13:15:12.614Z,2436.00
2019-05-01T13:16:12.602Z,2504.00
2019-05-01T13:17:12.562Z,2436.00
2019-05-01T13:18:12.528Z,2484.00
2019-05-01T13:19:12.535Z,2316.00
2019-05-01T13:20:12.535Z,2320.00
2019-05-01T13:21:12.434Z,2528.00
2019-05-01T13:22:12.467Z,3284.00
2019-05-01T13:23:12.385Z,3580.00
2019-05-01T13:24:14.364Z,4328.00
2019-05-01T13:25:12.324Z,4928.00
2019-05-01T13:26:12.309Z,4840.00
2019-05-01T13:27:12.266Z,4480.00
2019-05-01T13:28:12.244Z,4092.00
2019-05-01T13:29:12.220Z,3704.00
2019-05-01T13:30:12.215Z,3204.00
2019-05-01T13:31:12.164Z,2876.00
2019-05-01T13:32:12.140Z,2792.00
2019-05-01T13:33:12.108Z,2404.00
2019-05-01T13:34:12.090Z,2272.00
2019-05-01T13:35:12.044Z,2260.00
2019-05-01T13:36:13.097Z,2472.00
2019-05-01T13:37:11.987Z,2556.00
2019-05-01T13:38:11.961Z,2600.00
2019-05-01T13:39:11.931Z,2672.00
2019-05-01T13:40:12.903Z,2860.00
2019-05-01T13:41:11.873Z,2684.00
2019-05-01T13:42:11.845Z,2544.00
2019-05-01T13:43:11.822Z,2512.00
2019-05-01T13:44:11.815Z,2480.00
2019-05-01T13:45:11.775Z,2456.00
2019-05-01T13:46:11.749Z,2380.00
2019-05-01T13:47:11.712Z,2276.00
2019-05-01T13:48:11.679Z,2224.00
2019-05-01T13:49:11.648Z,2224.00
2019-05-01T13:50:11.627Z,2208.00
2019-05-01T13:51:11.595Z,2208.00
2019-05-01T13:52:11.575Z,2220.00
2019-05-01T13:53:11.544Z,2244.00
2019-05-01T13:54:11.515Z,2344.00
2019-05-01T13:55:11.483Z,2388.00
2019-05-01T13:56:11.464Z,2096.00
2019-05-01T13:57:11.425Z,1832.00
2019-05-01T13:58:11.449Z,1976.00
2019-05-01T13:59:11.372Z,2008.00
2019-05-01T14:00:11.365Z,2076.00
2019-05-01T14:01:11.310Z,2112.00
2019-05-01T14:02:17.932Z,2108.00
2019-05-01T14:03:11.264Z,2092.00
2019-05-01T14:04:11.230Z,2064.00
2019-05-01T14:05:11.200Z,2056.00
2019-05-01T14:06:19.924Z,1952.00
2019-05-01T14:07:16.632Z,1892.00
2019-05-01T14:08:11.212Z,1872.00
2019-05-01T14:09:11.093Z,2032.00
2019-05-01T14:10:12.071Z,2048.00
2019-05-01T14:11:11.055Z,2036.00
2019-05-01T14:12:12.036Z,2000.00
2019-05-01T14:13:10.980Z,1984.00
2019-05-01T14:14:12.955Z,2016.00
2019-05-01T14:15:10.922Z,2060.00
2019-05-01T14:16:10.894Z,2132.00
2019-05-01T14:17:10.863Z,2208.00